Time,TemperatureF,DewpointF,PressureIn,WindDirection,WindDirectionDegrees,WindSpeedMPH,WindSpeedGustMPH,Humidity,HourlyPrecipIn,Conditions,Clouds,dailyrainin,SoftwareType,DateUTC
2013-02-14 00:00:00,33.3,33.0,28.74,WNW,292,0.0,0.0,99,0.00,RA,,0.00,WeatherDisplay:10.37,2013-02-14 05:00:00,
2013-02-14 00:05:00,33.1,32.8,28.74,West,270,1.1,0.0,99,0.00,RA,,0.00,WeatherDisplay:10.37,2013-02-14 05:05:00,
2013-02-14 00:10:00,32.7,32.5,28.74,WNW,292,0.0,0.0,99,0.00,,,0.00,WeatherDisplay:10.37,2013-02-14 05:10:00,
2013-02-14 00:15:00,32.5,32.3,28.74,NE,45,2.3,2.3,99,0.00,,,0.00,WeatherDisplay:10.37,2013-02-14 05:15:00,
2013-02-14 00:20:00,32.5,32.3,28.75,North,0,3.5,3.5,99,0.00,,,0.00,WeatherDisplay:10.37,2013-02-14 05:20:00,
2013-02-14 00:25:00,32.7,32.5,28.76,NE,45,1.1,0.0,99,0.00,,,0.00,WeatherDisplay:10.37,2013-02-14 05:25:00,
2013-02-14 00:30:00,32.7,32.5,28.75,NW,315,1.1,0.0,99,0.00,,,0.00,WeatherDisplay:10.37,2013-02-14 05:30:00,
2013-02-14 00:35:00,32.7,32.5,28.75,NW,315,0.0,0.0,99,0.00,,,0.00,WeatherDisplay:10.37,2013-02-14 05:35:00,
2013-02-14 00:40:00,32.4,32.1,28.76,NE,45,2.3,2.3,99,0.00,,,0.00,WeatherDisplay:10.37,2013-02-14 05:40:00,
2013-02-14 00:45:00,32.5,32.3,28.76,NW,315,1.1,0.0,99,0.00,,,0.00,WeatherDisplay:10.37,2013-02-14 05:45:00,
2013-02-14 00:50:00,32.5,32.3,28.76,NW,315,1.1,0.0,99,0.00,,,0.00,WeatherDisplay:10.37,2013-02-14 05:50:00,
2013-02-14 00:55:00,32.2,31.9,28.76,NW,315,0.0,0.0,99,0.00,,,0.00,WeatherDisplay:10.37,2013-02-14 05:55:00,
2013-02-14 01:00:00,32.0,31.8,28.76,NE,45,2.3,2.3,99,0.00,,,0.00,WeatherDisplay:10.37,2013-02-14 06:00:00,
2013-02-14 01:05:00,32.4,32.1,28.76,North,0,3.5,0.0,99,0.00,,,0.00,WeatherDisplay:10.37,2013-02-14 06:05:00,
2013-02-14 01:10:00,32.4,32.1,28.76,NW,315,1.1,0.0,99,0.00,,,0.00,WeatherDisplay:10.37,2013-02-14 06:10:00,
2013-02-14 01:15:00,32.0,31.8,28.76,NW,315,0.0,0.0,99,0.00,,,0.00,WeatherDisplay:10.37,2013-02-14 06:15:00,
2013-02-14 01:20:00,31.5,31.2,28.76,NW,315,0.0,0.0,99,0.00,,,0.00,WeatherDisplay:10.37,2013-02-14 06:20:00,
2013-02-14 01:25:00,31.1,30.9,28.76,NW,315,0.0,0.0,99,0.00,,,0.00,WeatherDisplay:10.37,2013-02-14 06:25:00,
2013-02-14 01:30:00,30.9,30.7,28.76,SW,225,0.0,0.0,99,0.00,,,0.00,WeatherDisplay:10.37,2013-02-14 06:30:00,
2013-02-14 01:35:00,31.3,31.0,28.76,SW,225,0.0,0.0,99,0.00,,,0.00,WeatherDisplay:10.37,2013-02-14 06:35:00,
2013-02-14 01:40:00,32.0,31.8,28.76,SW,225,0.0,0.0,99,0.00,,,0.00,WeatherDisplay:10.37,2013-02-14 06:40:00,
2013-02-14 01:45:00,32.4,32.1,28.76,SW,225,1.1,0.0,99,0.00,,,0.00,WeatherDisplay:10.37,2013-02-14 06:45:00,
2013-02-14 01:50:00,33.1,32.8,28.77,NW,315,0.0,0.0,99,0.00,,,0.00,WeatherDisplay:10.37,2013-02-14 06:50:00,
2013-02-14 01:55:00,33.6,33.4,28.78,SW,225,0.0,0.0,99,0.00,,,0.00,WeatherDisplay:10.37,2013-02-14 06:55:00,
2013-02-14 02:00:00,34.0,33.7,28.78,SW,225,0.0,0.0,99,0.00,,,0.00,WeatherDisplay:10.37,2013-02-14 07:00:00,
2013-02-14 02:05:00,34.2,33.9,28.78,SW,225,0.0,0.0,99,0.00,,,0.00,WeatherDisplay:10.37,2013-02-14 07:05:00,
2013-02-14 02:10:00,34.0,33.7,28.78,SW,225,0.0,0.0,99,0.00,,,0.00,WeatherDisplay:10.37,2013-02-14 07:10:00,
2013-02-14 02:15:00,34.0,33.7,28.78,SW,225,0.0,0.0,99,0.00,,,0.00,WeatherDisplay:10.37,2013-02-14 07:15:00,
2013-02-14 02:20:00,34.0,33.7,28.77,SW,225,1.1,0.0,99,0.00,,,0.00,WeatherDisplay:10.37,2013-02-14 07:20:00,
2013-02-14 02:25:00,34.7,34.4,28.78,SW,225,1.1,0.0,99,0.00,,,0.00,WeatherDisplay:10.37,2013-02-14 07:25:00,
2013-02-14 02:30:00,35.1,34.8,28.78,SW,225,0.0,0.0,99,0.00,,,0.00,WeatherDisplay:10.37,2013-02-14 07:30:00,
2013-02-14 02:35:00,35.1,34.8,28.78,SW,225,0.0,0.0,99,0.00,,,0.00,WeatherDisplay:10.37,2013-02-14 07:35:00,
2013-02-14 02:40:00,34.5,34.3,28.78,SW,225,0.0,0.0,99,0.00,,,0.00,WeatherDisplay:10.37,2013-02-14 07:40:00,
2013-02-14 02:45:00,33.8,33.5,28.78,SW,225,0.0,0.0,99,0.00,,,0.00,WeatherDisplay:10.37,2013-02-14 07:45:00,
2013-02-14 02:50:00,33.3,33.0,28.78,SW,225,2.3,2.3,99,0.00,,,0.00,WeatherDisplay:10.37,2013-02-14 07:50:00,
2013-02-14 02:55:00,33.8,33.5,28.78,SW,225,0.0,0.0,99,0.00,,,0.00,WeatherDisplay:10.37,2013-02-14 07:55:00,
2013-02-14 03:00:00,34.2,33.9,28.78,SW,225,0.0,0.0,99,0.00,,,0.00,WeatherDisplay:10.37,2013-02-14 08:00:00,
2013-02-14 03:05:00,34.3,34.1,28.78,SW,225,0.0,0.0,99,0.00,,,0.00,WeatherDisplay:10.37,2013-02-14 08:05:00,
2013-02-14 03:10:00,34.3,34.1,28.78,SW,225,2.3,0.0,99,0.00,,,0.00,WeatherDisplay:10.37,2013-02-14 08:10:00,
2013-02-14 03:15:00,33.8,33.5,28.78,SW,225,0.0,0.0,99,0.00,,,0.00,WeatherDisplay:10.37,2013-02-14 08:15:00,
2013-02-14 03:20:00,32.9,32.7,28.78,SW,225,0.0,0.0,99,0.00,,,0.00,WeatherDisplay:10.37,2013-02-14 08:20:00,
2013-02-14 03:25:00,32.5,32.3,28.79,SW,225,0.0,0.0,99,0.00,,,0.00,WeatherDisplay:10.37,2013-02-14 08:25:00,
2013-02-14 03:34:00,32.2,32.0,28.79,North,0,0.0,0.0,99,0.00,CLR,,0.00,WeatherDisplay:10.37,2013-02-14 08:34:00,
2013-02-14 03:39:00,32.0,31.8,28.79,SW,225,0.0,0.0,99,0.00,,,0.00,WeatherDisplay:10.37,2013-02-14 08:39:00,
2013-02-14 03:44:00,31.3,31.0,28.79,SW,225,0.0,0.0,99,0.00,,,0.00,WeatherDisplay:10.37,2013-02-14 08:44:00,
2013-02-14 03:49:00,30.9,30.7,28.79,SW,225,0.0,0.0,99,0.00,,,0.00,WeatherDisplay:10.37,2013-02-14 08:49:00,
2013-02-14 03:54:00,30.6,30.3,28.79,SW,225,0.0,0.0,99,0.00,,,0.00,WeatherDisplay:10.37,2013-02-14 08:54:00,
2013-02-14 03:59:00,30.4,30.1,28.79,SW,225,0.0,0.0,99,0.00,,,0.00,WeatherDisplay:10.37,2013-02-14 08:59:00,
2013-02-14 04:04:00,30.2,30.0,28.80,SW,225,0.0,0.0,99,0.00,,,0.00,WeatherDisplay:10.37,2013-02-14 09:04:00,
2013-02-14 04:09:00,29.8,29.6,28.80,SW,225,0.0,0.0,99,0.00,,,0.00,WeatherDisplay:10.37,2013-02-14 09:09:00,
2013-02-14 04:14:00,29.5,29.2,28.80,SW,225,0.0,0.0,99,0.00,,,0.00,WeatherDisplay:10.37,2013-02-14 09:14:00,
2013-02-14 04:19:00,29.1,28.9,28.80,SW,225,0.0,0.0,99,0.00,,,0.00,WeatherDisplay:10.37,2013-02-14 09:19:00,
2013-02-14 04:24:00,28.9,28.7,28.80,SW,225,0.0,0.0,99,0.00,,,0.00,WeatherDisplay:10.37,2013-02-14 09:24:00,
2013-02-14 04:29:00,28.6,28.3,28.80,SW,225,0.0,0.0,99,0.00,,,0.00,WeatherDisplay:10.37,2013-02-14 09:29:00,
2013-02-14 04:34:00,28.6,28.3,28.81,SW,225,0.0,0.0,99,0.00,,,0.00,WeatherDisplay:10.37,2013-02-14 09:34:00,
2013-02-14 04:40:00,28.6,28.3,28.81,SW,225,0.0,0.0,99,0.00,,,0.00,WeatherDisplay:10.37,2013-02-14 09:40:00,
2013-02-14 04:45:00,28.4,28.2,28.81,SW,225,0.0,0.0,99,0.00,,,0.00,WeatherDisplay:10.37,2013-02-14 09:45:00,
2013-02-14 04:50:00,28.2,28.0,28.81,SW,225,0.0,0.0,99,0.00,,,0.00,WeatherDisplay:10.37,2013-02-14 09:50:00,
2013-02-14 04:55:00,28.0,27.8,28.81,SW,225,0.0,0.0,99,0.00,,,0.00,WeatherDisplay:10.37,2013-02-14 09:55:00,
2013-02-14 05:00:00,28.0,27.8,28.82,SW,225,0.0,0.0,99,0.00,,,0.00,WeatherDisplay:10.37,2013-02-14 10:00:00,
2013-02-14 05:05:00,28.0,27.8,28.82,SW,225,0.0,0.0,99,0.00,,,0.00,WeatherDisplay:10.37,2013-02-14 10:05:00,
2013-02-14 05:10:00,27.7,27.4,28.82,SW,225,0.0,0.0,99,0.00,,,0.00,WeatherDisplay:10.37,2013-02-14 10:10:00,
2013-02-14 05:15:00,27.7,27.4,28.82,SW,225,0.0,0.0,99,0.00,,,0.00,WeatherDisplay:10.37,2013-02-14 10:15:00,
2013-02-14 05:20:00,27.5,27.3,28.83,SW,225,0.0,0.0,99,0.00,,,0.00,WeatherDisplay:10.37,2013-02-14 10:20:00,
2013-02-14 05:25:00,27.1,26.9,28.83,SW,225,0.0,0.0,99,0.00,,,0.00,WeatherDisplay:10.37,2013-02-14 10:25:00,
2013-02-14 05:30:00,27.0,26.7,28.82,SW,225,0.0,0.0,99,0.00,,,0.00,WeatherDisplay:10.37,2013-02-14 10:30:00,
2013-02-14 05:35:00,27.0,26.7,28.82,SW,225,0.0,0.0,99,0.00,,,0.00,WeatherDisplay:10.37,2013-02-14 10:35:00,
2013-02-14 05:40:00,26.6,26.4,28.82,SW,225,0.0,0.0,99,0.00,,,0.00,WeatherDisplay:10.37,2013-02-14 10:40:00,
2013-02-14 05:45:00,26.6,26.4,28.82,SW,225,0.0,0.0,99,0.00,,,0.00,WeatherDisplay:10.37,2013-02-14 10:45:00,
2013-02-14 05:50:00,26.4,26.2,28.83,SW,225,0.0,0.0,99,0.00,,,0.00,WeatherDisplay:10.37,2013-02-14 10:50:00,
2013-02-14 05:55:00,26.4,26.2,28.82,SW,225,0.0,0.0,99,0.00,,,0.00,WeatherDisplay:10.37,2013-02-14 10:55:00,
2013-02-14 06:00:00,26.4,26.2,28.83,SW,225,0.0,0.0,99,0.00,,,0.00,WeatherDisplay:10.37,2013-02-14 11:00:00,
2013-02-14 06:05:00,26.4,26.2,28.83,SW,225,0.0,0.0,99,0.00,,,0.00,WeatherDisplay:10.37,2013-02-14 11:05:00,
2013-02-14 06:10:00,26.2,26.0,28.83,SW,225,0.0,0.0,99,0.00,,,0.00,WeatherDisplay:10.37,2013-02-14 11:10:00,
2013-02-14 06:15:00,26.2,26.0,28.83,SW,225,0.0,0.0,99,0.00,,,0.00,WeatherDisplay:10.37,2013-02-14 11:15:00,
2013-02-14 06:20:00,26.4,26.2,28.84,SW,225,0.0,0.0,99,0.00,,,0.00,WeatherDisplay:10.37,2013-02-14 11:20:00,
2013-02-14 06:25:00,26.4,26.2,28.84,SW,225,0.0,0.0,99,0.00,,,0.00,WeatherDisplay:10.37,2013-02-14 11:25:00,
2013-02-14 06:30:00,26.2,26.0,28.84,SW,225,0.0,0.0,99,0.00,,,0.00,WeatherDisplay:10.37,2013-02-14 11:30:00,
2013-02-14 06:35:00,26.1,25.8,28.84,SW,225,0.0,0.0,99,0.00,,,0.00,WeatherDisplay:10.37,2013-02-14 11:35:00,
2013-02-14 06:40:00,25.7,25.5,28.84,SW,225,0.0,0.0,99,0.00,,,0.00,WeatherDisplay:10.37,2013-02-14 11:40:00,
2013-02-14 06:45:00,25.7,25.5,28.84,SW,225,0.0,0.0,99,0.00,,,0.00,WeatherDisplay:10.37,2013-02-14 11:45:00,
2013-02-14 06:50:00,25.7,25.5,28.84,SW,225,0.0,0.0,99,0.00,,,0.00,WeatherDisplay:10.37,2013-02-14 11:50:00,
2013-02-14 06:55:00,25.7,25.5,28.84,SW,225,0.0,0.0,99,0.00,,,0.00,WeatherDisplay:10.37,2013-02-14 11:55:00,
2013-02-14 07:00:00,25.7,25.5,28.85,SW,225,0.0,0.0,99,0.00,,,0.00,WeatherDisplay:10.37,2013-02-14 12:00:00,
2013-02-14 07:05:00,25.7,25.5,28.85,SW,225,0.0,0.0,99,0.00,,,0.00,WeatherDisplay:10.37,2013-02-14 12:05:00,
2013-02-14 07:10:00,25.7,25.5,28.86,SW,225,0.0,0.0,99,0.00,,,0.00,WeatherDisplay:10.37,2013-02-14 12:10:00,
2013-02-14 07:15:00,25.5,25.3,28.87,SW,225,0.0,0.0,99,0.00,,,0.00,WeatherDisplay:10.37,2013-02-14 12:15:00,
2013-02-14 07:20:00,25.3,25.1,28.87,SW,225,0.0,0.0,99,0.00,,,0.00,WeatherDisplay:10.37,2013-02-14 12:20:00,
2013-02-14 07:25:00,25.3,25.1,28.87,SW,225,0.0,0.0,99,0.00,,,0.00,WeatherDisplay:10.37,2013-02-14 12:25:00,
2013-02-14 07:30:00,25.3,25.1,28.87,SW,225,0.0,0.0,99,0.00,,,0.00,WeatherDisplay:10.37,2013-02-14 12:30:00,
2013-02-14 07:35:00,25.5,25.3,28.88,SW,225,0.0,0.0,99,0.00,,,0.00,WeatherDisplay:10.37,2013-02-14 12:35:00,
2013-02-14 07:40:00,25.5,25.3,28.88,SW,225,0.0,0.0,99,0.00,,,0.00,WeatherDisplay:10.37,2013-02-14 12:40:00,
2013-02-14 07:45:00,25.5,25.3,28.89,SW,225,0.0,0.0,99,0.00,,,0.00,WeatherDisplay:10.37,2013-02-14 12:45:00,
2013-02-14 07:50:00,25.7,25.5,28.89,SW,225,0.0,0.0,99,0.00,,,0.00,WeatherDisplay:10.37,2013-02-14 12:50:00,
2013-02-14 07:55:00,26.1,25.8,28.90,SW,225,0.0,0.0,99,0.00,,,0.00,WeatherDisplay:10.37,2013-02-14 12:55:00,
2013-02-14 08:00:00,26.4,26.2,28.90,SW,225,0.0,0.0,99,0.00,,,0.00,WeatherDisplay:10.37,2013-02-14 13:00:00,
2013-02-14 08:05:00,26.8,26.5,28.90,SW,225,0.0,0.0,99,0.00,,,0.00,WeatherDisplay:10.37,2013-02-14 13:05:00,
2013-02-14 08:10:00,27.7,27.4,28.90,SW,225,0.0,0.0,99,0.00,,,0.00,WeatherDisplay:10.37,2013-02-14 13:10:00,
2013-02-14 08:15:00,30.0,29.8,28.91,SW,225,0.0,0.0,99,0.00,,,0.00,WeatherDisplay:10.37,2013-02-14 13:15:00,
2013-02-14 08:20:00,31.6,31.4,28.91,SW,225,0.0,0.0,99,0.00,,,0.00,WeatherDisplay:10.37,2013-02-14 13:20:00,
2013-02-14 08:25:00,32.0,31.8,28.92,SW,225,0.0,0.0,99,0.00,,,0.00,WeatherDisplay:10.37,2013-02-14 13:25:00,
2013-02-14 08:30:00,32.4,32.1,28.92,SW,225,0.0,0.0,99,0.00,,,0.00,WeatherDisplay:10.37,2013-02-14 13:30:00,
2013-02-14 08:35:00,32.5,32.3,28.92,SW,225,0.0,0.0,99,0.00,,,0.00,WeatherDisplay:10.37,2013-02-14 13:35:00,
2013-02-14 08:40:00,32.2,31.9,28.92,SW,225,0.0,0.0,99,0.00,,,0.00,WeatherDisplay:10.37,2013-02-14 13:40:00,
2013-02-14 08:45:00,32.0,31.8,28.91,SW,225,0.0,0.0,99,0.00,,,0.00,WeatherDisplay:10.37,2013-02-14 13:45:00,
2013-02-14 08:50:00,32.4,32.1,28.92,SW,225,0.0,0.0,99,0.00,,,0.00,WeatherDisplay:10.37,2013-02-14 13:50:00,
2013-02-14 08:55:00,34.7,34.4,28.92,SW,225,0.0,0.0,99,0.00,,,0.00,WeatherDisplay:10.37,2013-02-14 13:55:00,
2013-02-14 09:00:00,36.0,35.7,28.92,SW,225,0.0,0.0,99,0.00,,,0.00,WeatherDisplay:10.37,2013-02-14 14:00:00,
2013-02-14 09:05:00,37.2,37.0,28.91,SW,225,0.0,0.0,99,0.00,,,0.00,WeatherDisplay:10.37,2013-02-14 14:05:00,
2013-02-14 09:10:00,39.6,39.3,28.92,SW,225,0.0,0.0,99,0.00,,,0.00,WeatherDisplay:10.37,2013-02-14 14:10:00,
2013-02-14 09:15:00,40.5,40.2,28.92,SW,225,0.0,0.0,99,0.00,,,0.00,WeatherDisplay:10.37,2013-02-14 14:15:00,
2013-02-14 09:20:00,41.5,41.3,28.92,SW,225,0.0,0.0,99,0.00,,,0.00,WeatherDisplay:10.37,2013-02-14 14:20:00,
2013-02-14 09:25:00,42.4,42.2,28.92,SW,225,0.0,0.0,99,0.00,,,0.00,WeatherDisplay:10.37,2013-02-14 14:25:00,
2013-02-14 09:30:00,42.6,42.4,28.92,SW,225,1.1,1.1,99,0.00,,,0.00,WeatherDisplay:10.37,2013-02-14 14:30:00,
2013-02-14 09:35:00,43.2,41.0,28.91,NW,315,3.5,3.5,92,0.00,CLR,,0.00,WeatherDisplay:10.37,2013-02-14 14:35:00,
2013-02-14 09:40:00,43.9,40.6,28.92,SW,225,3.5,0.0,88,0.00,CLR,,0.00,WeatherDisplay:10.37,2013-02-14 14:40:00,
2013-02-14 09:45:00,44.4,39.9,28.92,NW,315,3.5,3.5,84,0.00,CLR,,0.00,WeatherDisplay:10.37,2013-02-14 14:45:00,
2013-02-14 09:50:00,45.3,40.8,28.92,West,270,3.5,0.0,84,0.00,CLR,,0.00,WeatherDisplay:10.37,2013-02-14 14:50:00,
2013-02-14 09:55:00,46.2,41.3,28.92,NW,315,1.1,0.0,83,0.00,CLR,,0.00,WeatherDisplay:10.37,2013-02-14 14:55:00,
2013-02-14 10:00:00,46.9,40.1,28.92,NW,315,3.5,3.5,77,0.00,CLR,,0.00,WeatherDisplay:10.37,2013-02-14 15:00:00,
2013-02-14 10:05:00,47.7,40.1,28.92,West,270,1.1,0.0,75,0.00,CLR,,0.00,WeatherDisplay:10.37,2013-02-14 15:05:00,
2013-02-14 10:10:00,47.7,39.4,28.92,NW,315,3.5,3.5,73,0.00,CLR,,0.00,WeatherDisplay:10.37,2013-02-14 15:10:00,
2013-02-14 10:15:00,48.4,39.8,28.92,West,270,1.1,0.0,72,0.00,CLR,,0.00,WeatherDisplay:10.37,2013-02-14 15:15:00,
2013-02-14 10:20:00,48.0,38.0,28.92,NW,315,5.8,5.8,68,0.00,CLR,,0.00,WeatherDisplay:10.37,2013-02-14 15:20:00,
2013-02-14 10:25:00,48.9,39.6,28.91,NW,315,3.5,3.5,70,0.00,CLR,,0.00,WeatherDisplay:10.37,2013-02-14 15:25:00,
2013-02-14 10:30:00,48.7,39.0,28.92,NW,315,3.5,3.5,69,0.00,CLR,,0.00,WeatherDisplay:10.37,2013-02-14 15:30:00,
2013-02-14 10:35:00,49.5,40.1,28.93,SW,225,2.3,0.0,70,0.00,CLR,,0.00,WeatherDisplay:10.37,2013-02-14 15:35:00,
2013-02-14 10:40:00,49.6,38.3,28.93,NW,315,3.5,3.5,65,0.00,CLR,,0.00,WeatherDisplay:10.37,2013-02-14 15:40:00,
2013-02-14 10:45:00,50.2,38.9,28.92,NW,315,3.5,3.5,65,0.00,CLR,,0.00,WeatherDisplay:10.37,2013-02-14 15:45:00,
2013-02-14 10:50:00,50.2,38.9,28.91,NW,315,1.1,0.0,65,0.00,CLR,,0.00,WeatherDisplay:10.37,2013-02-14 15:50:00,
2013-02-14 10:55:00,51.1,39.7,28.92,SW,225,0.0,0.0,65,0.00,CLR,,0.00,WeatherDisplay:10.37,2013-02-14 15:55:00,
2013-02-14 11:00:00,51.8,40.0,28.92,SW,225,1.1,1.1,64,0.00,CLR,,0.00,WeatherDisplay:10.37,2013-02-14 16:00:00,
2013-02-14 11:05:00,51.1,38.9,28.92,SW,225,3.5,0.0,63,0.00,CLR,,0.00,WeatherDisplay:10.37,2013-02-14 16:05:00,
2013-02-14 11:10:00,52.2,39.1,28.92,East,90,3.5,3.5,61,0.00,CLR,,0.00,WeatherDisplay:10.37,2013-02-14 16:10:00,
2013-02-14 11:15:00,52.5,39.5,28.92,South,180,1.1,0.0,61,0.00,CLR,,0.00,WeatherDisplay:10.37,2013-02-14 16:15:00,
2013-02-14 11:20:00,52.9,39.4,28.92,South,180,5.8,5.8,60,0.00,CLR,,0.00,WeatherDisplay:10.37,2013-02-14 16:20:00,
2013-02-14 11:25:00,52.9,38.9,28.92,SW,225,4.6,0.0,59,0.00,CLR,,0.00,WeatherDisplay:10.37,2013-02-14 16:25:00,
2013-02-14 11:30:00,51.6,38.6,28.93,South,180,6.9,0.0,61,0.00,CLR,,0.00,WeatherDisplay:10.37,2013-02-14 16:30:00,
2013-02-14 11:35:00,51.8,38.8,28.92,South,180,1.1,1.1,61,0.00,CLR,,0.00,WeatherDisplay:10.37,2013-02-14 16:35:00,
2013-02-14 11:40:00,51.4,38.8,28.92,SW,225,1.1,0.0,62,0.00,CLR,,0.00,WeatherDisplay:10.37,2013-02-14 16:40:00,
2013-02-14 11:45:00,51.4,38.0,28.93,South,180,5.8,5.8,60,0.00,CLR,,0.00,WeatherDisplay:10.37,2013-02-14 16:45:00,
2013-02-14 11:50:00,50.5,37.2,28.92,SW,225,4.6,4.6,60,0.00,CLR,,0.00,WeatherDisplay:10.37,2013-02-14 16:50:00,
2013-02-14 11:55:00,50.7,37.8,28.92,SW,225,3.5,3.5,61,0.00,CLR,,0.00,WeatherDisplay:10.37,2013-02-14 16:55:00,
2013-02-14 12:00:00,51.1,37.7,28.92,East,90,4.6,4.6,60,0.00,CLR,,0.00,WeatherDisplay:10.37,2013-02-14 17:00:00,
2013-02-14 12:05:00,50.5,37.2,28.92,SW,225,3.5,3.5,60,0.00,CLR,,0.00,WeatherDisplay:10.37,2013-02-14 17:05:00,
2013-02-14 12:10:00,50.2,37.7,28.92,South,180,5.8,0.0,62,0.00,CLR,,0.00,WeatherDisplay:10.37,2013-02-14 17:10:00,
2013-02-14 12:15:00,50.9,37.5,28.92,South,180,4.6,4.6,60,0.00,CLR,,0.00,WeatherDisplay:10.37,2013-02-14 17:15:00,
2013-02-14 12:20:00,51.1,38.5,28.92,SW,225,5.8,5.8,62,0.00,CLR,,0.00,WeatherDisplay:10.37,2013-02-14 17:20:00,
2013-02-14 12:25:00,50.9,37.9,28.92,SW,225,4.6,4.6,61,0.00,CLR,,0.00,WeatherDisplay:10.37,2013-02-14 17:25:00,
2013-02-14 12:30:00,50.7,38.6,28.91,SW,225,5.8,5.8,63,0.00,CLR,,0.00,WeatherDisplay:10.37,2013-02-14 17:30:00,
2013-02-14 12:35:00,50.7,37.3,28.91,South,180,8.1,8.1,60,0.00,CLR,,0.00,WeatherDisplay:10.37,2013-02-14 17:35:00,
2013-02-14 12:40:00,50.5,38.4,28.90,NW,315,4.6,4.6,63,0.00,CLR,,0.00,WeatherDisplay:10.37,2013-02-14 17:40:00,
2013-02-14 12:45:00,51.1,38.1,28.91,NW,315,3.5,3.5,61,0.00,CLR,,0.00,WeatherDisplay:10.37,2013-02-14 17:45:00,
2013-02-14 12:50:00,50.9,38.3,28.91,NW,315,3.5,3.5,62,0.00,CLR,,0.00,WeatherDisplay:10.37,2013-02-14 17:50:00,
2013-02-14 12:55:00,51.1,38.5,28.91,SW,225,5.8,5.8,62,0.00,CLR,,0.00,WeatherDisplay:10.37,2013-02-14 17:55:00,
2013-02-14 13:00:00,51.6,38.6,28.91,SSW,202,5.8,5.8,61,0.00,CLR,,0.00,WeatherDisplay:10.37,2013-02-14 18:00:00,
2013-02-14 13:05:00,51.3,38.3,28.90,South,180,4.6,4.6,61,0.00,CLR,,0.00,WeatherDisplay:10.37,2013-02-14 18:05:00,
2013-02-14 13:10:00,51.3,39.5,28.90,South,180,4.6,0.0,64,0.00,CLR,,0.00,WeatherDisplay:10.37,2013-02-14 18:10:00,
2013-02-14 13:15:00,51.4,38.8,28.89,SW,225,5.8,5.8,62,0.00,CLR,,0.00,WeatherDisplay:10.37,2013-02-14 18:15:00,
2013-02-14 13:20:00,51.4,38.0,28.89,NW,315,3.5,3.5,60,0.00,CLR,,0.00,WeatherDisplay:10.37,2013-02-14 18:20:00,
2013-02-14 13:25:00,51.3,37.8,28.88,South,180,3.5,3.5,60,0.00,CLR,,0.00,WeatherDisplay:10.37,2013-02-14 18:25:00,
2013-02-14 13:30:00,51.4,38.8,28.89,South,180,5.8,5.8,62,0.00,CLR,,0.00,WeatherDisplay:10.37,2013-02-14 18:30:00,
2013-02-14 13:35:00,51.8,37.9,28.88,SW,225,2.3,0.0,59,0.00,CLR,,0.00,WeatherDisplay:10.37,2013-02-14 18:35:00,
2013-02-14 13:40:00,52.0,38.9,28.88,SW,225,4.6,4.6,61,0.00,CLR,,0.00,WeatherDisplay:10.37,2013-02-14 18:40:00,
2013-02-14 13:45:00,52.2,38.3,28.87,NW,315,5.8,5.8,59,0.00,CLR,,0.00,WeatherDisplay:10.37,2013-02-14 18:45:00,
2013-02-14 13:50:00,51.8,38.3,28.87,NW,315,5.8,5.8,60,0.00,CLR,,0.00,WeatherDisplay:10.37,2013-02-14 18:50:00,
2013-02-14 13:55:00,52.2,39.5,28.87,South,180,6.9,6.9,62,0.00,CLR,,0.00,WeatherDisplay:10.37,2013-02-14 18:55:00,
2013-02-14 14:00:00,52.7,38.8,28.87,SW,225,3.5,3.5,59,0.00,CLR,,0.00,WeatherDisplay:10.37,2013-02-14 19:00:00,
2013-02-14 14:05:00,53.2,39.3,28.86,SW,225,3.5,3.5,59,0.00,CLR,,0.00,WeatherDisplay:10.37,2013-02-14 19:05:00,
2013-02-14 14:10:00,53.6,39.6,28.86,SW,225,6.9,6.9,59,0.00,CLR,,0.00,WeatherDisplay:10.37,2013-02-14 19:10:00,
2013-02-14 14:15:00,53.2,38.8,28.86,SW,225,4.6,0.0,58,0.00,CLR,,0.00,WeatherDisplay:10.37,2013-02-14 19:15:00,
2013-02-14 14:20:00,52.9,38.1,28.86,WNW,292,4.6,4.6,57,0.00,CLR,,0.00,WeatherDisplay:10.37,2013-02-14 19:20:00,
2013-02-14 14:25:00,53.1,38.2,28.86,East,90,8.1,8.1,57,0.00,CLR,,0.00,WeatherDisplay:10.37,2013-02-14 19:25:00,
2013-02-14 14:30:00,53.2,39.7,28.86,SW,225,3.5,0.0,60,0.00,CLR,,0.00,WeatherDisplay:10.37,2013-02-14 19:30:00,
2013-02-14 14:35:00,54.7,40.2,28.86,WSW,248,0.0,0.7,58,0.00,CLR,,0.00,WeatherDisplay:10.37,2013-02-14 19:35:00,
2013-02-14 14:40:00,54.7,38.8,28.86,North,0,4.6,4.6,55,0.00,CLR,,0.00,WeatherDisplay:10.37,2013-02-14 19:40:00,
2013-02-14 14:45:00,54.1,39.2,28.85,SW,225,3.5,0.0,57,0.00,CLR,,0.00,WeatherDisplay:10.37,2013-02-14 19:45:00,
2013-02-14 14:50:00,54.9,39.0,28.86,South,180,5.8,5.8,55,0.00,CLR,,0.00,WeatherDisplay:10.37,2013-02-14 19:50:00,
2013-02-14 14:55:00,55.9,39.5,28.86,South,180,5.8,5.8,54,0.00,CLR,,0.00,WeatherDisplay:10.37,2013-02-14 19:55:00,
2013-02-14 15:00:00,55.2,38.9,28.86,SW,225,4.6,4.6,54,0.00,CLR,,0.00,WeatherDisplay:10.37,2013-02-14 20:00:00,
2013-02-14 15:05:00,56.3,39.4,28.85,SW,225,4.6,4.6,53,0.00,CLR,,0.00,WeatherDisplay:10.37,2013-02-14 20:05:00,
2013-02-14 15:10:00,55.2,38.4,28.86,SE,135,8.1,8.1,53,0.00,CLR,,0.00,WeatherDisplay:10.37,2013-02-14 20:10:00,
2013-02-14 15:15:00,55.0,40.1,28.85,SW,225,3.5,0.0,57,0.00,CLR,,0.00,WeatherDisplay:10.37,2013-02-14 20:15:00,
2013-02-14 15:20:00,55.6,39.7,28.85,SW,225,6.9,6.9,55,0.00,CLR,,0.00,WeatherDisplay:10.37,2013-02-14 20:20:00,
2013-02-14 15:25:00,56.5,40.0,28.86,SW,225,2.3,2.3,54,0.00,CLR,,0.00,WeatherDisplay:10.37,2013-02-14 20:25:00,
2013-02-14 15:30:00,56.1,39.2,28.86,SW,225,4.6,4.6,53,0.00,CLR,,0.00,WeatherDisplay:10.37,2013-02-14 20:30:00,
2013-02-14 15:35:00,55.6,38.2,28.86,NW,315,6.9,6.9,52,0.00,CLR,,0.00,WeatherDisplay:10.37,2013-02-14 20:35:00,
2013-02-14 15:40:00,54.9,38.5,28.86,SW,225,3.5,3.5,54,0.00,CLR,,0.00,WeatherDisplay:10.37,2013-02-14 20:40:00,
2013-02-14 15:45:00,54.3,38.5,28.87,SW,225,3.5,0.0,55,0.00,CLR,,0.00,WeatherDisplay:10.37,2013-02-14 20:45:00,
2013-02-14 15:50:00,54.1,38.3,28.87,NW,315,5.8,5.8,55,0.00,CLR,,0.00,WeatherDisplay:10.37,2013-02-14 20:50:00,
2013-02-14 15:55:00,54.0,39.5,28.87,South,180,2.3,2.3,58,0.00,CLR,,0.00,WeatherDisplay:10.37,2013-02-14 20:55:00,
2013-02-14 16:00:00,53.8,38.9,28.86,SW,225,2.3,2.3,57,0.00,CLR,,0.00,WeatherDisplay:10.37,2013-02-14 21:00:00,
2013-02-14 16:05:00,53.8,38.9,28.86,SW,225,1.1,0.0,57,0.00,CLR,,0.00,WeatherDisplay:10.37,2013-02-14 21:05:00,
2013-02-14 16:10:00,53.6,38.3,28.86,NW,315,3.5,3.5,56,0.00,CLR,,0.00,WeatherDisplay:10.37,2013-02-14 21:10:00,
2013-02-14 16:15:00,53.2,38.4,28.86,West,270,2.3,2.3,57,0.00,CLR,,0.00,WeatherDisplay:10.37,2013-02-14 21:15:00,
2013-02-14 16:20:00,53.2,39.3,28.85,West,270,0.0,0.0,59,0.00,CLR,,0.00,WeatherDisplay:10.37,2013-02-14 21:20:00,
2013-02-14 16:25:00,52.9,38.1,28.86,West,270,3.5,3.5,57,0.00,CLR,,0.00,WeatherDisplay:10.37,2013-02-14 21:25:00,
2013-02-14 16:30:00,52.3,38.9,28.86,SW,225,3.5,0.0,60,0.00,CLR,,0.00,WeatherDisplay:10.37,2013-02-14 21:30:00,
2013-02-14 16:35:00,52.5,39.0,28.85,SW,225,2.3,0.0,60,0.00,CLR,,0.00,WeatherDisplay:10.37,2013-02-14 21:35:00,
2013-02-14 16:40:00,52.9,38.5,28.85,SW,225,3.5,0.0,58,0.00,CLR,,0.00,WeatherDisplay:10.37,2013-02-14 21:40:00,
2013-02-14 16:45:00,53.1,38.7,28.85,SW,225,2.3,0.0,58,0.00,CLR,,0.00,WeatherDisplay:10.37,2013-02-14 21:45:00,
2013-02-14 16:50:00,52.9,38.5,28.86,SW,225,2.3,2.3,58,0.00,CLR,,0.00,WeatherDisplay:10.37,2013-02-14 21:50:00,
2013-02-14 16:55:00,52.3,38.0,28.86,SW,225,4.6,0.0,58,0.00,CLR,,0.00,WeatherDisplay:10.37,2013-02-14 21:55:00,
2013-02-14 17:00:00,52.2,38.3,28.85,SW,225,3.5,0.0,59,0.00,CLR,,0.00,WeatherDisplay:10.37,2013-02-14 22:00:00,
2013-02-14 17:05:00,52.3,38.4,28.86,SW,225,1.1,1.1,59,0.00,CLR,,0.00,WeatherDisplay:10.37,2013-02-14 22:05:00,
2013-02-14 17:10:00,51.6,37.3,28.85,NW,315,2.3,2.3,58,0.00,CLR,,0.00,WeatherDisplay:10.37,2013-02-14 22:10:00,
2013-02-14 17:15:00,51.4,38.0,28.85,NW,315,1.1,0.0,60,0.00,CLR,,0.00,WeatherDisplay:10.37,2013-02-14 22:15:00,
2013-02-14 17:20:00,51.3,37.4,28.85,SW,225,2.3,2.3,59,0.00,CLR,,0.00,WeatherDisplay:10.37,2013-02-14 22:20:00,
2013-02-14 17:25:00,50.9,37.9,28.85,SW,225,0.0,0.0,61,0.00,CLR,,0.00,WeatherDisplay:10.37,2013-02-14 22:25:00,
2013-02-14 17:30:00,50.7,38.2,28.85,SW,225,2.3,0.0,62,0.00,CLR,,0.00,WeatherDisplay:10.37,2013-02-14 22:30:00,
2013-02-14 17:35:00,50.4,37.4,28.84,SW,225,2.3,0.0,61,0.00,CLR,,0.00,WeatherDisplay:10.37,2013-02-14 22:35:00,
2013-02-14 17:40:00,50.0,37.5,28.85,SW,225,1.1,0.0,62,0.00,CLR,,0.00,WeatherDisplay:10.37,2013-02-14 22:40:00,
2013-02-14 17:45:00,49.5,37.4,28.85,SW,225,2.3,0.0,63,0.00,CLR,,0.00,WeatherDisplay:10.37,2013-02-14 22:45:00,
2013-02-14 17:50:00,48.7,37.1,28.85,SW,225,1.1,0.0,64,0.00,CLR,,0.00,WeatherDisplay:10.37,2013-02-14 22:50:00,
2013-02-14 17:56:00,48.7,37.1,28.86,North,0,1.1,0.0,64,0.00,CLR,,0.00,WeatherDisplay:10.37,2013-02-14 22:56:00,
2013-02-14 18:01:00,47.5,36.7,28.86,SW,225,0.0,0.0,66,0.00,CLR,,0.00,WeatherDisplay:10.37,2013-02-14 23:01:00,
2013-02-14 18:06:00,46.9,36.9,28.86,SW,225,0.0,0.0,68,0.00,CLR,,0.00,WeatherDisplay:10.37,2013-02-14 23:06:00,
2013-02-14 18:11:00,45.5,37.0,28.86,SW,225,0.0,0.0,72,0.00,CLR,,0.00,WeatherDisplay:10.37,2013-02-14 23:11:00,
2013-02-14 18:16:00,44.6,37.2,28.86,SW,225,1.1,0.0,75,0.00,CLR,,0.00,WeatherDisplay:10.37,2013-02-14 23:16:00,
2013-02-14 18:21:00,43.9,37.1,28.86,SW,225,0.0,0.0,77,0.00,CLR,,0.00,WeatherDisplay:10.37,2013-02-14 23:21:00,
2013-02-14 18:26:00,43.3,36.6,28.86,SW,225,0.0,0.0,77,0.00,CLR,,0.00,WeatherDisplay:10.37,2013-02-14 23:26:00,
2013-02-14 18:31:00,43.3,36.6,28.87,SW,225,0.0,0.0,77,0.00,CLR,,0.00,WeatherDisplay:10.37,2013-02-14 23:31:00,
2013-02-14 18:36:00,41.5,36.5,28.87,SW,225,0.0,0.0,82,0.00,CLR,,0.00,WeatherDisplay:10.37,2013-02-14 23:36:00,
2013-02-14 18:41:00,41.0,36.5,28.87,SW,225,0.0,0.0,84,0.00,CLR,,0.00,WeatherDisplay:10.37,2013-02-14 23:41:00,
2013-02-14 18:46:00,40.5,36.0,28.87,SW,225,0.0,0.0,84,0.00,CLR,,0.00,WeatherDisplay:10.37,2013-02-14 23:46:00,
2013-02-14 18:51:00,39.7,35.6,28.87,SW,225,0.0,0.0,85,0.00,CLR,,0.00,WeatherDisplay:10.37,2013-02-14 23:51:00,
2013-02-14 18:56:00,39.0,35.5,28.87,SW,225,0.0,0.0,87,0.00,CLR,,0.00,WeatherDisplay:10.37,2013-02-14 23:56:00,
2013-02-14 19:01:00,38.7,35.1,28.87,SW,225,0.0,0.0,87,0.00,CLR,,0.00,WeatherDisplay:10.37,2013-02-15 00:01:00,
2013-02-14 19:07:00,38.7,35.1,28.87,SW,225,0.0,0.0,87,0.00,CLR,,0.00,WeatherDisplay:10.37,2013-02-15 00:07:00,
2013-02-14 19:12:00,37.4,34.5,28.87,SW,225,0.0,0.0,89,0.00,CLR,,0.00,WeatherDisplay:10.37,2013-02-15 00:12:00,
2013-02-14 19:17:00,37.0,34.1,28.87,SW,225,0.0,0.0,89,0.00,CLR,,0.00,WeatherDisplay:10.37,2013-02-15 00:17:00,
2013-02-14 19:22:00,36.5,33.8,28.87,SW,225,0.0,0.0,90,0.00,CLR,,0.00,WeatherDisplay:10.37,2013-02-15 00:22:00,
2013-02-14 19:27:00,36.1,34.0,28.87,SW,225,0.0,0.0,92,0.00,CLR,,0.00,WeatherDisplay:10.37,2013-02-15 00:27:00,
2013-02-14 19:32:00,36.0,34.1,28.87,SW,225,0.0,0.0,93,0.00,CLR,,0.00,WeatherDisplay:10.37,2013-02-15 00:32:00,
2013-02-14 19:37:00,36.0,34.4,28.87,SW,225,0.0,0.0,94,0.00,CLR,,0.00,WeatherDisplay:10.37,2013-02-15 00:37:00,
2013-02-14 19:42:00,35.6,34.3,28.87,SW,225,0.0,0.0,95,0.00,CLR,,0.00,WeatherDisplay:10.37,2013-02-15 00:42:00,
2013-02-14 19:47:00,35.4,34.1,28.87,SW,225,0.0,0.0,95,0.00,CLR,,0.00,WeatherDisplay:10.37,2013-02-15 00:47:00,
2013-02-14 19:52:00,34.9,34.1,28.88,SW,225,0.0,0.0,97,0.00,CLR,,0.00,WeatherDisplay:10.37,2013-02-15 00:52:00,
2013-02-14 19:57:00,34.7,33.7,28.88,SW,225,0.0,0.0,96,0.00,CLR,,0.00,WeatherDisplay:10.37,2013-02-15 00:57:00,
2013-02-14 20:02:00,34.5,33.8,28.88,SW,225,0.0,0.0,97,0.00,CLR,,0.00,WeatherDisplay:10.37,2013-02-15 01:02:00,
2013-02-14 20:07:00,34.3,34.1,28.88,SW,225,0.0,0.0,99,0.00,CLR,,0.00,WeatherDisplay:10.37,2013-02-15 01:07:00,
2013-02-14 20:12:00,34.2,33.9,28.88,SW,225,0.0,0.0,99,0.00,,,0.00,WeatherDisplay:10.37,2013-02-15 01:12:00,
2013-02-14 20:17:00,34.0,33.7,28.88,SW,225,0.0,0.0,99,0.00,,,0.00,WeatherDisplay:10.37,2013-02-15 01:17:00,
2013-02-14 20:22:00,34.0,33.7,28.88,SW,225,0.0,0.0,99,0.00,,,0.00,WeatherDisplay:10.37,2013-02-15 01:22:00,
2013-02-14 20:27:00,33.6,33.4,28.89,SW,225,0.0,0.0,99,0.00,,,0.00,WeatherDisplay:10.37,2013-02-15 01:27:00,
2013-02-14 20:32:00,33.6,33.4,28.89,SW,225,0.0,0.0,99,0.00,,,0.00,WeatherDisplay:10.37,2013-02-15 01:32:00,
2013-02-14 20:37:00,33.4,33.2,28.89,SW,225,0.0,0.0,99,0.00,,,0.00,WeatherDisplay:10.37,2013-02-15 01:37:00,
2013-02-14 20:42:00,33.3,33.0,28.90,SW,225,0.0,0.0,99,0.00,,,0.00,WeatherDisplay:10.37,2013-02-15 01:42:00,
2013-02-14 20:47:00,32.9,32.7,28.90,SW,225,0.0,0.0,99,0.00,,,0.00,WeatherDisplay:10.37,2013-02-15 01:47:00,
2013-02-14 20:52:00,32.7,32.5,28.90,SW,225,0.0,0.0,99,0.00,,,0.00,WeatherDisplay:10.37,2013-02-15 01:52:00,
2013-02-14 20:57:00,32.5,32.3,28.90,SW,225,0.0,0.0,99,0.00,,,0.00,WeatherDisplay:10.37,2013-02-15 01:57:00,
2013-02-14 21:02:00,32.5,32.3,28.90,SW,225,0.0,0.0,99,0.00,,,0.00,WeatherDisplay:10.37,2013-02-15 02:02:00,
2013-02-14 21:07:00,32.4,32.1,28.90,SW,225,0.0,0.0,99,0.00,,,0.00,WeatherDisplay:10.37,2013-02-15 02:07:00,
2013-02-14 21:12:00,32.2,31.9,28.91,SW,225,0.0,0.0,99,0.00,,,0.00,WeatherDisplay:10.37,2013-02-15 02:12:00,
2013-02-14 21:17:00,32.0,31.8,28.91,SW,225,0.0,0.0,99,0.00,,,0.00,WeatherDisplay:10.37,2013-02-15 02:17:00,
2013-02-14 21:22:00,31.8,31.6,28.91,SW,225,0.0,0.0,99,0.00,,,0.00,WeatherDisplay:10.37,2013-02-15 02:22:00,
2013-02-14 21:27:00,31.6,31.4,28.91,SW,225,0.0,0.0,99,0.00,,,0.00,WeatherDisplay:10.37,2013-02-15 02:27:00,
2013-02-14 21:32:00,31.6,31.4,28.91,SW,225,0.0,0.0,99,0.00,,,0.00,WeatherDisplay:10.37,2013-02-15 02:32:00,
2013-02-14 21:38:00,31.5,31.2,28.92,SW,225,0.0,0.0,99,0.00,,,0.00,WeatherDisplay:10.37,2013-02-15 02:38:00,
2013-02-14 21:43:00,31.1,30.9,28.91,SW,225,0.0,0.0,99,0.00,,,0.00,WeatherDisplay:10.37,2013-02-15 02:43:00,
2013-02-14 21:48:00,31.1,30.9,28.91,SW,225,0.0,0.0,99,0.00,,,0.00,WeatherDisplay:10.37,2013-02-15 02:48:00,
2013-02-14 21:53:00,31.1,30.9,28.92,SW,225,0.0,0.0,99,0.00,,,0.00,WeatherDisplay:10.37,2013-02-15 02:53:00,
2013-02-14 21:58:00,31.1,30.9,28.91,SW,225,0.0,0.0,99,0.00,,,0.00,WeatherDisplay:10.37,2013-02-15 02:58:00,
2013-02-14 22:03:00,31.1,30.9,28.92,SW,225,0.0,0.0,99,0.00,,,0.00,WeatherDisplay:10.37,2013-02-15 03:03:00,
2013-02-14 22:08:00,30.7,30.5,28.92,SW,225,0.0,0.0,99,0.00,,,0.00,WeatherDisplay:10.37,2013-02-15 03:08:00,
2013-02-14 22:13:00,30.6,30.3,28.91,SW,225,0.0,0.0,99,0.00,,,0.00,WeatherDisplay:10.37,2013-02-15 03:13:00,
2013-02-14 22:18:00,30.6,30.3,28.91,SW,225,0.0,0.0,99,0.00,,,0.00,WeatherDisplay:10.37,2013-02-15 03:18:00,
2013-02-14 22:23:00,30.6,30.3,28.91,SW,225,0.0,0.0,99,0.00,,,0.00,WeatherDisplay:10.37,2013-02-15 03:23:00,
2013-02-14 22:28:00,30.6,30.3,28.91,SW,225,0.0,0.0,99,0.00,,,0.00,WeatherDisplay:10.37,2013-02-15 03:28:00,
2013-02-14 22:33:00,30.4,30.1,28.91,SW,225,0.0,0.0,99,0.00,,,0.00,WeatherDisplay:10.37,2013-02-15 03:33:00,
2013-02-14 22:38:00,30.2,30.0,28.91,SW,225,0.0,0.0,99,0.00,,,0.00,WeatherDisplay:10.37,2013-02-15 03:38:00,
2013-02-14 22:43:00,30.0,29.8,28.92,SW,225,0.0,0.0,99,0.00,,,0.00,WeatherDisplay:10.37,2013-02-15 03:43:00,
2013-02-14 22:48:00,30.0,29.8,28.91,SW,225,0.0,0.0,99,0.00,,,0.00,WeatherDisplay:10.37,2013-02-15 03:48:00,
2013-02-14 22:53:00,30.0,29.8,28.91,SW,225,0.0,0.0,99,0.00,,,0.00,WeatherDisplay:10.37,2013-02-15 03:53:00,
2013-02-14 22:58:00,30.0,29.8,28.91,SW,225,0.0,0.0,99,0.00,,,0.00,WeatherDisplay:10.37,2013-02-15 03:58:00,
2013-02-14 23:03:00,30.4,30.1,28.92,SW,225,0.0,0.0,99,0.00,,,0.00,WeatherDisplay:10.37,2013-02-15 04:03:00,
2013-02-14 23:08:00,30.0,29.8,28.92,SW,225,0.0,0.0,99,0.00,,,0.00,WeatherDisplay:10.37,2013-02-15 04:08:00,
2013-02-14 23:13:00,30.0,29.8,28.92,SW,225,0.0,0.0,99,0.00,,,0.00,WeatherDisplay:10.37,2013-02-15 04:13:00,
2013-02-14 23:18:00,29.8,29.6,28.91,SW,225,0.0,0.0,99,0.00,,,0.00,WeatherDisplay:10.37,2013-02-15 04:18:00,
2013-02-14 23:23:00,29.7,29.4,28.91,SW,225,0.0,0.0,99,0.00,,,0.00,WeatherDisplay:10.37,2013-02-15 04:23:00,
2013-02-14 23:28:00,29.7,29.4,28.92,SW,225,0.0,0.0,99,0.00,,,0.00,WeatherDisplay:10.37,2013-02-15 04:28:00,
2013-02-14 23:33:00,29.7,29.4,28.92,SW,225,0.0,0.0,99,0.00,,,0.00,WeatherDisplay:10.37,2013-02-15 04:33:00,
2013-02-14 23:38:00,29.8,29.6,28.92,SW,225,0.0,0.0,99,0.00,,,0.00,WeatherDisplay:10.37,2013-02-15 04:38:00,
2013-02-14 23:43:00,29.7,29.4,28.92,SW,225,0.0,0.0,99,0.00,,,0.00,WeatherDisplay:10.37,2013-02-15 04:43:00,
2013-02-14 23:48:00,30.0,29.8,28.92,SW,225,1.1,0.0,99,0.00,,,0.00,WeatherDisplay:10.37,2013-02-15 04:48:00,
2013-02-14 23:53:00,29.8,29.6,28.92,SW,225,0.0,0.0,99,0.00,,,0.00,WeatherDisplay:10.37,2013-02-15 04:53:00,
2013-02-14 23:58:00,29.8,29.6,28.93,SW,225,1.1,0.0,99,0.00,,,0.00,WeatherDisplay:10.37,2013-02-15 04:58:00,